createdAt,value
2023-05-10T00:02:02.264Z,14.40
2023-05-10T00:04:28.913Z,15.80
2023-05-10T00:06:55.836Z,12.90
2023-05-10T00:09:22.495Z,12.90
2023-05-10T00:11:49.128Z,12.90
2023-05-10T00:14:15.909Z,15.00
2023-05-10T00:16:42.545Z,14.80
2023-05-10T00:19:09.151Z,12.90
2023-05-10T00:21:35.765Z,14.30
2023-05-10T00:24:02.437Z,14.40
2023-05-10T00:26:29.175Z,15.60
2023-05-10T00:28:55.814Z,14.50
2023-05-10T00:31:22.536Z,13.60
2023-05-10T00:33:49.086Z,12.70
2023-05-10T00:36:16.098Z,14.80
2023-05-10T00:38:42.766Z,12.60
2023-05-10T00:41:09.493Z,12.50
2023-05-10T00:43:36.216Z,12.60
2023-05-10T00:46:02.988Z,12.60
2023-05-10T00:48:29.811Z,12.60
2023-05-10T00:50:56.551Z,14.10
2023-05-10T00:53:23.159Z,12.60
2023-05-10T00:55:49.906Z,12.60
2023-05-10T00:58:16.682Z,15.20
2023-05-10T01:00:44.960Z,12.50
2023-05-10T01:03:12.462Z,12.90
2023-05-10T01:05:39.274Z,12.50
2023-05-10T01:08:06.062Z,13.70
2023-05-10T01:10:32.984Z,13.00
2023-05-10T01:13:00.553Z,12.50
2023-05-10T01:15:27.369Z,12.50
2023-05-10T01:17:54.728Z,12.60
2023-05-10T01:20:21.508Z,12.60
2023-05-10T01:23:14.536Z,13.40
2023-05-10T01:26:05.704Z,12.50
2023-05-10T01:28:52.540Z,12.40
2023-05-10T01:31:19.206Z,12.40
2023-05-10T01:34:06.132Z,12.70
2023-05-10T01:37:08.326Z,12.40
2023-05-10T01:39:44.639Z,12.30
2023-05-10T01:42:12.216Z,12.30
2023-05-10T01:44:41.583Z,12.40
2023-05-10T01:47:08.219Z,14.50
2023-05-10T01:49:37.987Z,12.30
2023-05-10T01:52:09.860Z,12.40
2023-05-10T01:54:36.805Z,12.30
2023-05-10T01:57:06.483Z,13.90
2023-05-10T01:59:41.795Z,13.60
2023-05-10T02:02:12.569Z,12.30
2023-05-10T02:04:40.591Z,12.30
2023-05-10T02:07:08.361Z,12.40
2023-05-10T02:09:35.967Z,12.40
2023-05-10T02:12:03.873Z,15.20
2023-05-10T02:14:35.097Z,12.50
2023-05-10T02:17:03.001Z,12.40
2023-05-10T02:19:30.250Z,13.60
2023-05-10T02:21:57.987Z,13.60
2023-05-10T02:24:25.357Z,12.50
2023-05-10T02:26:54.891Z,13.60
2023-05-10T02:29:21.968Z,12.30
2023-05-10T02:31:49.081Z,12.30
2023-05-10T02:34:15.850Z,14.10
2023-05-10T02:36:42.798Z,13.30
2023-05-10T02:39:13.865Z,12.20
2023-05-10T02:41:41.966Z,13.10
2023-05-10T02:44:09.033Z,12.80
2023-05-10T02:46:36.070Z,12.30
2023-05-10T02:49:03.145Z,12.30
2023-05-10T02:51:35.404Z,12.30
2023-05-10T02:54:08.195Z,12.30
2023-05-10T02:56:36.760Z,12.30
2023-05-10T02:59:03.703Z,12.30
2023-05-10T03:01:30.577Z,12.30
2023-05-10T03:03:57.549Z,13.00
2023-05-10T03:06:24.296Z,12.30
2023-05-10T03:08:51.215Z,12.50
2023-05-10T03:11:28.038Z,13.50
2023-05-10T03:14:03.960Z,13.50
2023-05-10T03:16:34.021Z,12.30
2023-05-10T03:19:13.081Z,13.40
2023-05-10T03:21:41.468Z,12.30
2023-05-10T03:24:08.893Z,14.40
2023-05-10T03:26:36.141Z,12.20
2023-05-10T03:29:03.379Z,12.20
2023-05-10T03:31:30.057Z,14.40
2023-05-10T03:33:56.865Z,13.50
2023-05-10T03:36:23.507Z,12.10
2023-05-10T03:38:50.445Z,14.70
2023-05-10T03:41:17.311Z,14.00
2023-05-10T03:43:43.983Z,12.10
2023-05-10T03:46:10.623Z,11.90
2023-05-10T03:48:37.515Z,13.80
2023-05-10T03:51:04.272Z,12.10
2023-05-10T03:53:30.983Z,12.00
2023-05-10T03:55:57.689Z,12.00
2023-05-10T03:58:24.357Z,12.10
2023-05-10T04:00:52.103Z,13.70
2023-05-10T04:03:19.253Z,15.10
2023-05-10T04:05:45.968Z,13.20
2023-05-10T04:08:12.536Z,13.20
2023-05-10T04:10:39.199Z,12.00
2023-05-10T04:13:06.288Z,13.30
2023-05-10T04:15:33.134Z,12.90
2023-05-10T04:18:00.059Z,12.10
2023-05-10T04:20:26.869Z,12.20
2023-05-10T04:22:53.510Z,12.40
2023-05-10T04:25:20.764Z,15.20
2023-05-10T04:27:47.439Z,12.20
2023-05-10T04:30:14.237Z,12.30
2023-05-10T04:32:40.937Z,12.20
2023-05-10T04:35:08.055Z,12.30
2023-05-10T04:37:34.660Z,12.30
2023-05-10T04:40:01.730Z,13.60
2023-05-10T04:42:28.370Z,12.20
2023-05-10T04:44:55.031Z,12.20
2023-05-10T04:47:21.734Z,12.30
2023-05-10T04:49:48.410Z,12.20
2023-05-10T04:52:16.027Z,12.20
2023-05-10T04:54:42.753Z,12.20
2023-05-10T04:57:09.519Z,12.20
2023-05-10T04:59:37.004Z,13.80
2023-05-10T05:02:04.935Z,14.80
2023-05-10T05:04:32.216Z,12.30
2023-05-10T05:06:58.781Z,12.30
2023-05-10T05:09:25.414Z,13.50
2023-05-10T05:11:52.527Z,13.90
2023-05-10T05:14:19.232Z,12.30
2023-05-10T05:16:45.851Z,13.50
2023-05-10T05:19:12.684Z,12.80
2023-05-10T05:21:39.858Z,12.40
2023-05-10T05:24:06.859Z,14.60
2023-05-10T05:26:33.606Z,12.50
2023-05-10T05:29:00.229Z,12.50
2023-05-10T05:31:27.065Z,13.60
2023-05-10T05:33:53.668Z,14.20
2023-05-10T05:36:20.456Z,14.60
2023-05-10T05:38:47.067Z,12.70
2023-05-10T05:41:13.710Z,12.70
2023-05-10T05:43:40.354Z,12.70
2023-05-10T05:46:07.121Z,12.70
2023-05-10T05:48:33.819Z,13.00
2023-05-10T05:51:00.704Z,14.70
2023-05-10T05:53:27.650Z,13.00
2023-05-10T05:55:55.130Z,12.80
2023-05-10T05:58:22.671Z,12.80
2023-05-10T06:00:49.945Z,14.30
2023-05-10T06:03:16.889Z,12.80
2023-05-10T06:05:43.577Z,12.90
2023-05-10T06:08:10.736Z,15.30
2023-05-10T06:10:37.735Z,15.60
2023-05-10T06:13:04.391Z,12.80
2023-05-10T06:15:31.138Z,15.00
2023-05-10T06:17:57.842Z,13.20
2023-05-10T06:20:24.552Z,14.40
2023-05-10T06:22:51.472Z,13.20
2023-05-10T06:25:19.279Z,13.30
2023-05-10T06:27:49.787Z,14.80
2023-05-10T06:30:18.600Z,13.80
2023-05-10T06:32:46.337Z,13.50
2023-05-10T06:35:13.052Z,13.60
2023-05-10T06:37:39.936Z,13.70
2023-05-10T06:40:07.294Z,13.60
2023-05-10T06:42:34.023Z,13.70
2023-05-10T06:45:00.754Z,14.40
2023-05-10T06:47:27.461Z,13.80
2023-05-10T06:49:54.646Z,13.80
2023-05-10T06:52:21.410Z,13.80
2023-05-10T06:54:48.061Z,14.10
2023-05-10T06:57:27.616Z,15.50
2023-05-10T06:59:58.023Z,13.90
2023-05-10T07:02:24.684Z,13.90
2023-05-10T07:04:53.210Z,13.90
2023-05-10T07:07:20.384Z,14.60
2023-05-10T07:09:47.119Z,14.00
2023-05-10T07:12:15.371Z,13.80
2023-05-10T07:14:43.084Z,13.20
2023-05-10T07:17:10.087Z,15.20
2023-05-10T07:19:37.057Z,13.90
2023-05-10T07:22:04.070Z,13.80
2023-05-10T07:24:32.449Z,15.00
2023-05-10T07:26:59.331Z,14.20
2023-05-10T07:29:26.370Z,15.20
2023-05-10T07:31:53.072Z,13.80
2023-05-10T07:34:20.100Z,14.80
2023-05-10T07:36:47.107Z,13.80
2023-05-10T07:39:18.690Z,15.60
2023-05-10T07:41:51.439Z,13.90
2023-05-10T07:44:20.433Z,13.90
2023-05-10T07:46:47.467Z,13.90
2023-05-10T07:49:14.150Z,14.10
2023-05-10T07:51:40.966Z,14.10
2023-05-10T07:54:07.936Z,14.30
2023-05-10T07:56:35.537Z,14.30
2023-05-10T07:59:04.817Z,14.30
2023-05-10T08:01:32.334Z,14.40
2023-05-10T08:03:59.375Z,14.40
2023-05-10T08:06:28.390Z,14.50
2023-05-10T08:08:55.463Z,14.50
2023-05-10T08:11:22.424Z,14.80
2023-05-10T08:13:49.817Z,16.20
2023-05-10T08:16:16.891Z,15.70
2023-05-10T08:18:44.270Z,14.90
2023-05-10T08:21:12.344Z,16.60
2023-05-10T08:23:39.048Z,15.60
2023-05-10T08:26:05.776Z,15.10
2023-05-10T08:28:32.457Z,15.10
2023-05-10T08:30:59.139Z,16.80
2023-05-10T08:33:25.978Z,16.60
2023-05-10T08:35:53.246Z,15.20
2023-05-10T08:38:19.955Z,15.20
2023-05-10T08:40:47.168Z,15.90
2023-05-10T08:43:15.742Z,15.90
2023-05-10T08:45:43.498Z,17.40
2023-05-10T08:48:11.317Z,15.80
2023-05-10T08:50:39.068Z,17.60
2023-05-10T08:53:07.823Z,17.00
2023-05-10T08:55:34.826Z,15.60
2023-05-10T08:58:01.588Z,15.70
2023-05-10T09:00:29.373Z,16.30
2023-05-10T09:02:56.129Z,18.50
2023-05-10T09:05:22.823Z,15.60
2023-05-10T09:07:49.486Z,17.30
2023-05-10T09:10:16.290Z,18.50
2023-05-10T09:12:45.269Z,15.80
2023-05-10T09:15:14.985Z,16.10
2023-05-10T09:17:42.286Z,17.00
2023-05-10T09:20:09.113Z,17.60
2023-05-10T09:22:36.073Z,15.60
2023-05-10T09:25:07.256Z,15.40
2023-05-10T09:27:34.449Z,15.40
2023-05-10T09:30:01.259Z,15.70
2023-05-10T09:32:41.269Z,17.40
2023-05-10T09:35:08.780Z,15.50
2023-05-10T09:37:35.714Z,15.70
2023-05-10T09:40:05.543Z,17.20
2023-05-10T09:42:32.131Z,16.00
2023-05-10T09:45:03.395Z,15.70
2023-05-10T09:47:30.368Z,15.70
2023-05-10T09:50:03.828Z,16.60
2023-05-10T09:53:00.322Z,15.60
2023-05-10T09:55:39.244Z,15.60
2023-05-10T09:58:10.426Z,16.50
2023-05-10T10:00:38.319Z,15.60
2023-05-10T10:03:06.714Z,16.00
2023-05-10T10:05:36.701Z,16.80
2023-05-10T10:08:05.553Z,18.60
2023-05-10T10:10:32.993Z,18.40
2023-05-10T10:13:00.514Z,17.20
2023-05-10T10:15:27.515Z,17.60
2023-05-10T10:17:54.612Z,15.80
2023-05-10T10:20:22.186Z,16.00
2023-05-10T10:22:49.214Z,16.10
2023-05-10T10:25:17.069Z,17.40
2023-05-10T10:27:50.042Z,18.50
2023-05-10T10:32:29.095Z,15.60
2023-05-10T10:34:56.248Z,14.70
2023-05-10T10:37:22.862Z,13.90
2023-05-10T10:44:31.904Z,12.60
2023-05-10T10:47:24.299Z,12.50
2023-05-10T10:50:04.320Z,12.40
2023-05-10T10:52:44.333Z,12.30
2023-05-10T10:55:15.597Z,12.40
2023-05-10T10:57:42.574Z,12.40
2023-05-10T11:00:26.309Z,12.60
2023-05-10T11:02:54.352Z,12.70
2023-05-10T11:08:17.520Z,13.00
2023-05-10T11:10:53.504Z,13.30
2023-05-10T11:13:24.728Z,13.60
2023-05-10T11:15:51.715Z,13.80
2023-05-10T11:18:24.306Z,13.90
2023-05-10T11:20:51.708Z,14.00
2023-05-10T11:23:19.196Z,14.30
2023-05-10T11:25:46.636Z,14.30
2023-05-10T11:28:13.660Z,14.50
2023-05-10T11:30:41.083Z,14.50
2023-05-10T11:33:08.435Z,14.90
2023-05-10T11:35:41.063Z,14.90
2023-05-10T11:38:10.481Z,15.10
2023-05-10T11:40:37.620Z,15.40
2023-05-10T11:43:04.566Z,15.60
2023-05-10T11:45:34.674Z,15.80
2023-05-10T11:48:01.880Z,15.90
2023-05-10T11:50:28.869Z,15.90
2023-05-10T11:52:59.632Z,16.00
2023-05-10T11:55:26.445Z,15.80
2023-05-10T11:57:54.053Z,15.80
2023-05-10T12:00:23.409Z,15.80
2023-05-10T12:02:50.239Z,15.80
2023-05-10T12:05:17.020Z,15.70
2023-05-10T12:07:43.873Z,17.90
2023-05-10T12:10:11.935Z,15.60
2023-05-10T12:12:38.564Z,15.40
2023-05-10T12:15:06.240Z,15.30
2023-05-10T12:17:33.028Z,15.20
2023-05-10T12:20:00.255Z,15.10
2023-05-10T12:22:26.947Z,15.40
2023-05-10T12:24:53.599Z,14.90
2023-05-10T12:27:20.228Z,18.40
2023-05-10T12:29:46.996Z,15.50
2023-05-10T12:32:13.805Z,17.40
2023-05-10T12:34:40.671Z,14.80
2023-05-10T12:37:07.417Z,14.80
2023-05-10T12:39:42.032Z,14.90
2023-05-10T12:42:10.081Z,14.80
2023-05-10T12:44:36.800Z,14.80
2023-05-10T12:47:03.538Z,17.50
2023-05-10T12:49:30.350Z,14.90
2023-05-10T12:51:57.002Z,14.90
2023-05-10T12:54:23.697Z,15.00
2023-05-10T12:56:50.315Z,15.00
2023-05-10T12:59:16.980Z,15.20
2023-05-10T13:01:43.832Z,15.30
2023-05-10T13:04:10.520Z,15.50
2023-05-10T13:06:37.229Z,15.60
2023-05-10T13:09:03.936Z,15.60
2023-05-10T13:11:30.899Z,15.70
2023-05-10T13:13:57.629Z,15.60
2023-05-10T13:16:24.395Z,18.20
2023-05-10T13:18:51.692Z,15.60
2023-05-10T13:21:18.466Z,15.60
2023-05-10T13:23:45.161Z,15.70
2023-05-10T13:26:11.830Z,15.70
2023-05-10T13:28:39.834Z,15.70
2023-05-10T13:31:06.696Z,17.30
2023-05-10T13:36:00.463Z,15.80
2023-05-10T13:38:27.093Z,15.80
2023-05-10T13:40:54.004Z,15.80
2023-05-10T13:45:51.168Z,16.00
2023-05-10T13:48:17.930Z,16.50
2023-05-10T13:50:44.702Z,16.20
2023-05-10T13:53:11.323Z,16.10
2023-05-10T13:55:37.963Z,16.10
2023-05-10T13:58:04.581Z,17.30
2023-05-10T14:00:31.781Z,16.10
2023-05-10T14:02:58.613Z,16.90
2023-05-10T14:05:26.461Z,17.50
2023-05-10T14:07:53.406Z,16.30
2023-05-10T14:10:20.177Z,16.40
2023-05-10T14:12:47.025Z,16.50
2023-05-10T14:15:13.782Z,16.50
2023-05-10T14:17:40.948Z,17.10
2023-05-10T14:20:07.969Z,18.40
2023-05-10T14:22:34.616Z,16.50
2023-05-10T14:25:01.845Z,17.00
2023-05-10T14:27:28.564Z,16.50
2023-05-10T14:29:55.517Z,17.20
2023-05-10T14:32:22.177Z,16.50
2023-05-10T14:34:48.779Z,16.50
2023-05-10T14:37:16.311Z,17.30
2023-05-10T14:39:43.744Z,16.60
2023-05-10T14:42:10.401Z,17.50
2023-05-10T14:44:37.038Z,16.60
2023-05-10T14:47:03.663Z,16.40
2023-05-10T14:49:30.314Z,16.40
2023-05-10T14:51:56.914Z,16.40
2023-05-10T14:54:23.784Z,16.50
2023-05-10T14:56:53.690Z,17.50
2023-05-10T14:59:21.452Z,15.90
2023-05-10T15:01:48.549Z,17.50
2023-05-10T15:04:17.361Z,18.60
2023-05-10T15:06:44.521Z,16.70
2023-05-10T15:09:11.447Z,16.80
2023-05-10T15:11:38.286Z,16.10
2023-05-10T15:14:05.014Z,16.80
2023-05-10T15:16:34.243Z,16.80
2023-05-10T15:19:02.542Z,15.80
2023-05-10T15:21:29.619Z,15.80
2023-05-10T15:23:56.419Z,15.90
2023-05-10T15:26:23.137Z,16.60
2023-05-10T15:28:49.734Z,16.00
2023-05-10T15:31:16.462Z,17.90
2023-05-10T15:33:43.144Z,16.80
2023-05-10T15:36:09.807Z,16.10
2023-05-10T15:38:37.729Z,16.20
2023-05-10T15:41:04.437Z,16.10
2023-05-10T15:43:31.001Z,16.20
2023-05-10T15:45:57.712Z,17.20
2023-05-10T15:48:24.321Z,16.10
2023-05-10T15:50:51.066Z,16.10
2023-05-10T15:53:17.957Z,16.60
2023-05-10T15:55:44.891Z,16.30
2023-05-10T15:58:11.576Z,16.20
2023-05-10T16:00:39.347Z,16.00
2023-05-10T16:03:06.934Z,15.90
2023-05-10T16:05:33.870Z,16.10
2023-05-10T16:08:01.136Z,16.40
2023-05-10T16:10:28.153Z,16.40
2023-05-10T16:12:55.009Z,17.70
2023-05-10T16:15:22.790Z,16.40
2023-05-10T16:17:49.826Z,18.60
2023-05-10T16:20:16.721Z,15.20
2023-05-10T16:22:44.454Z,15.00
2023-05-10T16:25:14.100Z,15.60
2023-05-10T16:27:41.105Z,16.50
2023-05-10T16:30:08.285Z,15.10
2023-05-10T16:32:35.241Z,14.50
2023-05-10T16:35:01.912Z,15.80
2023-05-10T16:37:28.874Z,14.30
2023-05-10T16:39:55.607Z,14.20
2023-05-10T16:42:24.007Z,15.50
2023-05-10T16:44:50.903Z,15.50
2023-05-10T16:47:17.831Z,14.10
2023-05-10T16:49:44.423Z,14.00
2023-05-10T16:52:11.133Z,15.60
2023-05-10T16:54:37.842Z,14.00
2023-05-10T16:57:04.461Z,13.80
2023-05-10T16:59:31.104Z,14.50
2023-05-10T17:01:57.892Z,14.80
2023-05-10T17:04:24.761Z,14.60
2023-05-10T17:06:51.455Z,13.80
2023-05-10T17:09:18.112Z,15.70
2023-05-10T17:11:45.105Z,15.30
2023-05-10T17:14:11.793Z,14.80
2023-05-10T17:16:38.519Z,14.40
2023-05-10T17:19:05.318Z,14.80
2023-05-10T17:21:32.072Z,14.40
2023-05-10T17:23:58.851Z,14.00
2023-05-10T17:26:27.616Z,14.30
2023-05-10T17:28:55.151Z,15.90
2023-05-10T17:31:21.817Z,15.20
2023-05-10T17:33:48.544Z,14.10
2023-05-10T17:36:15.406Z,13.70
2023-05-10T17:38:43.613Z,13.70
2023-05-10T17:41:10.337Z,15.60
2023-05-10T17:43:37.248Z,13.50
2023-05-10T17:46:03.969Z,13.50
2023-05-10T17:48:31.199Z,15.40
2023-05-10T17:50:57.880Z,13.30
2023-05-10T17:53:24.925Z,14.10
2023-05-10T17:55:52.351Z,13.30
2023-05-10T17:58:19.068Z,15.60
2023-05-10T18:00:46.298Z,14.30
2023-05-10T18:03:12.993Z,13.10
2023-05-10T18:05:39.724Z,13.00
2023-05-10T18:08:07.367Z,13.00
2023-05-10T18:10:34.420Z,13.00
2023-05-10T18:13:02.988Z,13.00
2023-05-10T18:15:29.730Z,14.40
2023-05-10T18:17:56.936Z,13.00
2023-05-10T18:20:24.044Z,13.00
2023-05-10T18:22:50.788Z,13.00
2023-05-10T18:25:17.951Z,13.00
2023-05-10T18:27:44.773Z,12.90
2023-05-10T18:30:12.609Z,12.90
2023-05-10T18:32:39.885Z,12.90
2023-05-10T18:35:07.594Z,12.90
2023-05-10T18:37:34.712Z,12.90
2023-05-10T18:40:01.391Z,12.90
2023-05-10T18:42:28.121Z,12.90
2023-05-10T18:44:55.394Z,12.90
2023-05-10T18:47:22.416Z,12.90
2023-05-10T18:49:49.102Z,12.80
2023-05-10T18:52:16.409Z,13.00
2023-05-10T18:54:43.221Z,13.70
2023-05-10T18:57:10.487Z,12.70
2023-05-10T18:59:37.206Z,12.60
2023-05-10T19:02:04.224Z,12.60
2023-05-10T19:04:31.150Z,12.60
2023-05-10T19:06:57.837Z,12.50
2023-05-10T19:09:26.236Z,12.50
2023-05-10T19:11:53.277Z,12.50
2023-05-10T19:14:20.540Z,12.50
2023-05-10T19:16:53.338Z,12.50
2023-05-10T19:19:23.481Z,12.50
2023-05-10T19:21:50.289Z,12.40
2023-05-10T19:24:18.269Z,12.50
2023-05-10T19:26:46.937Z,12.40
2023-05-10T19:29:13.874Z,12.40
2023-05-10T19:31:40.701Z,12.40
2023-05-10T19:34:07.355Z,12.40
2023-05-10T19:36:34.415Z,12.30
2023-05-10T19:39:01.244Z,12.30
2023-05-10T19:41:28.323Z,14.20
2023-05-10T19:43:55.330Z,12.60
2023-05-10T19:46:22.223Z,12.30
2023-05-10T19:48:49.058Z,13.30
2023-05-10T19:51:15.880Z,12.30
2023-05-10T19:53:44.867Z,12.40
2023-05-10T19:56:12.744Z,12.20
2023-05-10T19:58:39.718Z,12.20
2023-05-10T20:01:07.812Z,13.20
2023-05-10T20:03:35.360Z,14.00
2023-05-10T20:06:02.234Z,12.20
2023-05-10T20:08:28.941Z,12.10
2023-05-10T20:10:58.952Z,12.00
2023-05-10T20:13:25.742Z,13.00
2023-05-10T20:15:55.505Z,12.00
2023-05-10T20:18:22.489Z,12.80
2023-05-10T20:20:53.082Z,12.60
2023-05-10T20:23:19.763Z,11.90
2023-05-10T20:25:46.627Z,11.80
2023-05-10T20:28:13.264Z,12.90
2023-05-10T20:30:41.056Z,11.80
2023-05-10T20:33:08.309Z,11.70
2023-05-10T20:35:35.117Z,11.70
2023-05-10T20:38:02.480Z,11.80
2023-05-10T20:40:29.120Z,12.90
2023-05-10T20:42:55.841Z,12.70
2023-05-10T20:45:22.789Z,11.70
2023-05-10T20:47:50.285Z,11.70
2023-05-10T20:50:17.134Z,11.60
2023-05-10T20:52:43.999Z,11.70
2023-05-10T20:55:11.113Z,11.70
2023-05-10T20:57:37.802Z,12.40
2023-05-10T21:00:06.011Z,11.60
2023-05-10T21:02:32.723Z,11.50
2023-05-10T21:04:59.718Z,11.50
2023-05-10T21:07:26.438Z,11.60
2023-05-10T21:09:53.345Z,11.50
2023-05-10T21:12:19.956Z,11.50
2023-05-10T21:14:47.781Z,11.40
2023-05-10T21:17:14.669Z,12.70
2023-05-10T21:19:41.473Z,12.60
2023-05-10T21:22:08.149Z,11.80
2023-05-10T21:24:35.464Z,11.40
2023-05-10T21:27:02.838Z,11.70
2023-05-10T21:29:29.478Z,11.50
2023-05-10T21:31:56.240Z,11.40
2023-05-10T21:34:23.030Z,11.30
2023-05-10T21:36:49.671Z,11.30
2023-05-10T21:39:16.796Z,11.20
2023-05-10T21:41:43.669Z,11.20
2023-05-10T21:44:11.429Z,11.10
2023-05-10T21:46:38.092Z,11.10
2023-05-10T21:49:05.399Z,11.00
2023-05-10T21:51:32.062Z,11.00
2023-05-10T21:53:59.058Z,12.90
2023-05-10T21:56:25.677Z,10.90
2023-05-10T21:58:52.433Z,11.00
2023-05-10T22:01:19.322Z,10.90
2023-05-10T22:03:46.520Z,10.90
2023-05-10T22:06:13.352Z,10.90
2023-05-10T22:08:41.713Z,10.90
2023-05-10T22:11:08.400Z,10.90
2023-05-10T22:13:35.332Z,11.00
2023-05-10T22:16:02.121Z,11.80
2023-05-10T22:18:29.088Z,11.00
2023-05-10T22:20:55.912Z,11.00
2023-05-10T22:23:22.664Z,11.00
2023-05-10T22:25:49.447Z,11.10
2023-05-10T22:28:16.096Z,11.10
2023-05-10T22:30:43.185Z,11.10
2023-05-10T22:33:09.981Z,13.10
2023-05-10T22:35:37.983Z,12.00
2023-05-10T22:38:04.969Z,11.10
2023-05-10T22:40:31.728Z,11.10
2023-05-10T22:42:58.332Z,11.10
2023-05-10T22:45:25.258Z,11.10
2023-05-10T22:47:52.376Z,11.10
2023-05-10T22:50:19.687Z,13.30
2023-05-10T22:52:46.822Z,11.00
2023-05-10T22:55:13.525Z,11.00
2023-05-10T22:57:40.444Z,11.00
2023-05-10T23:00:07.720Z,11.00
2023-05-10T23:02:34.568Z,11.00
2023-05-10T23:05:01.256Z,11.00
2023-05-10T23:07:28.159Z,11.00
2023-05-10T23:09:54.807Z,11.00
2023-05-10T23:12:21.440Z,11.00
2023-05-10T23:14:48.170Z,11.00
2023-05-10T23:17:14.923Z,11.00
2023-05-10T23:19:41.709Z,11.00
2023-05-10T23:22:08.576Z,11.10
2023-05-10T23:24:36.074Z,11.00
2023-05-10T23:27:03.918Z,10.90
2023-05-10T23:29:32.073Z,11.00
2023-05-10T23:31:58.792Z,10.90
2023-05-10T23:34:25.561Z,10.90
2023-05-10T23:36:52.289Z,11.00
2023-05-10T23:39:19.055Z,11.00
2023-05-10T23:41:45.942Z,10.90
2023-05-10T23:44:12.644Z,10.80
2023-05-10T23:46:39.474Z,10.90
2023-05-10T23:49:06.237Z,10.90
2023-05-10T23:51:33.264Z,10.80
2023-05-10T23:54:00.522Z,10.80
2023-05-10T23:56:27.533Z,10.80
2023-05-10T23:58:54.201Z,12.40
